Welcome to Des Moines Iowa Weather. I am an independent private personal weather station on the Northwest Side of Des Moines, Iowa. Just East of Windsor Heights and just West of Glendale . This site is also mobile friendly.

There are no active watches, warnings or advisories


Visit our other weather sites:

Historical Data

Weather Station Setup



Weather Underground History page Text

Daily Summary for January 22, 2017 Units:  English    Metric   Both
« Previous Day
Next Day »
Daily Weekly Monthly Yearly Custom
  High: Low: Average:
Temperature: 37.1 °F 30.6 °F 34.4 °F
Dew Point: 36.0 °F 29.3 °F 33.5 °F
Humidity: 98 % 95 % 97 %
Wind Speed: 10.0 mph 0.0 mph 2.1 mph
Wind Gust: 15.0 mph - -
Wind:- - NW
Pressure: 29.90 in 29.57 in -
Precipitation: 0.00 in    
Historical Graphs
 
 
Tabular Data for January 22, 2017
Time Temperature Dew Point Pressure Wind Wind Speed Wind Gust Humidity Rainfall Rate (Hourly)
00:00 31.8 °F 30.5 °F 29.58 in Calm     95 % 0.00 in
00:03 31.6 °F 31.0 °F 29.57 in Calm     96 % 0.00 in
00:05 31.6 °F 30.3 °F 29.58 in Calm     95 % 0.00 in
00:10 31.6 °F 30.3 °F 29.58 in Calm     95 % 0.00 in
00:15 31.6 °F 30.3 °F 29.58 in Calm     95 % 0.00 in
00:18 31.4 °F 30.0 °F 29.57 in Calm     96 % 0.00 in
00:20 31.6 °F 30.3 °F 29.58 in Calm     95 % 0.00 in
00:25 31.6 °F 30.3 °F 29.58 in Calm     95 % 0.00 in
00:30 31.6 °F 30.3 °F 29.58 in Calm     95 % 0.00 in
00:33 31.1 °F 30.0 °F 29.58 in Calm     96 % 0.00 in
00:35 31.6 °F 30.3 °F 29.58 in Calm     95 % 0.00 in
00:40 31.3 °F 30.0 °F 29.58 in Calm     95 % 0.00 in
00:45 31.3 °F 30.0 °F 29.58 in Calm     95 % 0.00 in
00:48 30.8 °F 30.0 °F 29.57 in Calm     96 % 0.00 in
00:50 31.3 °F 30.0 °F 29.58 in Calm     95 % 0.00 in
00:55 31.0 °F 29.7 °F 29.58 in Calm     95 % 0.00 in
01:00 31.0 °F 29.7 °F 29.58 in Calm     95 % 0.00 in
01:03 30.6 °F 30.0 °F 29.58 in Calm     96 % 0.00 in
01:05 31.0 °F 29.7 °F 29.58 in Calm     95 % 0.00 in
01:10 30.7 °F 29.4 °F 29.58 in Calm     95 % 0.00 in
01:15 30.7 °F 29.4 °F 29.58 in Calm     95 % 0.00 in
01:18 30.6 °F 30.0 °F 29.58 in Calm   3.0 mph 96 % 0.00 in
01:20 30.7 °F 29.4 °F 29.58 in Calm     95 % 0.00 in
01:25 30.6 °F 29.3 °F 29.59 in WNW 1.0 mph 5.0 mph 95 % 0.00 in
01:30 30.6 °F 29.3 °F 29.59 in WNW 1.0 mph 5.0 mph 95 % 0.00 in
01:33 31.0 °F 30.0 °F 29.59 in Calm   2.0 mph 97 % 0.00 in
01:35 30.6 °F 29.3 °F 29.59 in WNW 1.0 mph 5.0 mph 95 % 0.00 in
01:40 30.6 °F 29.6 °F 29.59 in Calm   1.0 mph 96 % 0.00 in
01:45 30.6 °F 29.6 °F 29.59 in Calm   1.0 mph 96 % 0.00 in
01:48 31.9 °F 31.0 °F 29.59 in Calm   3.0 mph 97 % 0.00 in
01:50 30.6 °F 29.6 °F 29.59 in Calm   1.0 mph 96 % 0.00 in
01:55 31.2 °F 30.2 °F 29.60 in Calm   3.0 mph 96 % 0.00 in
02:00 31.2 °F 30.2 °F 29.60 in Calm   3.0 mph 96 % 0.00 in
02:03 32.5 °F 32.0 °F 29.61 in Calm     97 % 0.00 in
02:05 32.1 °F 31.1 °F 29.61 in Calm   2.0 mph 96 % 0.00 in
02:10 32.1 °F 31.1 °F 29.61 in Calm   2.0 mph 96 % 0.00 in
02:15 32.1 °F 31.1 °F 29.61 in Calm   2.0 mph 96 % 0.00 in
02:18 33.1 °F 32.0 °F 29.60 in NW 2.0 mph 3.0 mph 97 % 0.00 in
02:20 32.6 °F 31.6 °F 29.61 in Calm   3.0 mph 96 % 0.00 in
02:25 32.6 °F 31.6 °F 29.61 in Calm   3.0 mph 96 % 0.00 in
02:30 32.6 °F 31.6 °F 29.61 in Calm   3.0 mph 96 % 0.00 in
02:33 33.9 °F 33.0 °F 29.61 in WNW 1.0 mph 8.0 mph 97 % 0.00 in
02:35 33.3 °F 32.5 °F 29.61 in WNW 2.0 mph 8.0 mph 97 % 0.00 in
02:40 33.3 °F 32.5 °F 29.61 in WNW 2.0 mph 8.0 mph 97 % 0.00 in
02:45 33.3 °F 32.5 °F 29.61 in WNW 2.0 mph 8.0 mph 97 % 0.00 in
02:48 34.0 °F 33.0 °F 29.61 in NW 1.0 mph 8.0 mph 97 % 0.00 in
02:50 33.9 °F 32.9 °F 29.61 in NW 3.0 mph 10.0 mph 96 % 0.00 in
03:00 33.9 °F 32.9 °F 29.61 in NW 3.0 mph 10.0 mph 96 % 0.00 in
03:03 34.0 °F 33.0 °F 29.61 in North 3.0 mph 6.0 mph 97 % 0.00 in
03:05 34.0 °F 33.0 °F 29.62 in NW 2.0 mph 8.0 mph 96 % 0.00 in
03:10 34.0 °F 33.0 °F 29.62 in NW 2.0 mph 8.0 mph 96 % 0.00 in
03:15 34.0 °F 33.0 °F 29.62 in NW 2.0 mph 8.0 mph 96 % 0.00 in
03:18 33.8 °F 33.0 °F 29.61 in NW 2.0 mph 5.0 mph 98 % 0.00 in
03:20 33.9 °F 32.9 °F 29.62 in NW 2.0 mph 8.0 mph 96 % 0.00 in
03:25 33.9 °F 32.9 °F 29.62 in NW 2.0 mph 8.0 mph 96 % 0.00 in
03:30 33.9 °F 32.9 °F 29.62 in NW 2.0 mph 8.0 mph 96 % 0.00 in
03:34 33.5 °F 33.0 °F 29.61 in NW 2.0 mph 3.0 mph 98 % 0.00 in
03:35 33.7 °F 32.9 °F 29.62 in NW 1.0 mph 5.0 mph 97 % 0.00 in
03:40 33.7 °F 32.9 °F 29.62 in NW 1.0 mph 5.0 mph 97 % 0.00 in
03:45 33.7 °F 32.9 °F 29.62 in NW 1.0 mph 5.0 mph 97 % 0.00 in
03:48 33.2 °F 33.0 °F 29.62 in NW 3.0 mph 5.0 mph 98 % 0.00 in
03:50 33.4 °F 32.7 °F 29.63 in NW 1.0 mph 4.0 mph 97 % 0.00 in
03:55 33.4 °F 32.7 °F 29.63 in NW 1.0 mph 4.0 mph 97 % 0.00 in
04:00 33.4 °F 32.7 °F 29.63 in NW 1.0 mph 4.0 mph 97 % 0.00 in
04:03 32.5 °F 32.0 °F 29.62 in NW 2.0 mph 8.0 mph 98 % 0.00 in
04:05 33.0 °F 32.0 °F 29.63 in NW 3.0 mph 8.0 mph 96 % 0.00 in
04:10 33.0 °F 32.0 °F 29.63 in NW 3.0 mph 8.0 mph 96 % 0.00 in
04:15 33.0 °F 32.0 °F 29.63 in NW 3.0 mph 8.0 mph 96 % 0.00 in
04:18 32.1 °F 32.0 °F 29.62 in NW 2.0 mph 9.0 mph 98 % 0.00 in
04:20 32.4 °F 31.6 °F 29.63 in NW 3.0 mph 9.0 mph 97 % 0.00 in
04:25 32.4 °F 31.6 °F 29.63 in NW 3.0 mph 9.0 mph 97 % 0.00 in
04:30 32.4 °F 31.6 °F 29.63 in NW 3.0 mph 9.0 mph 97 % 0.00 in
04:33 31.8 °F 31.0 °F 29.64 in NW 3.0 mph 8.0 mph 98 % 0.00 in
04:35 32.0 °F 31.2 °F 29.64 in NW 3.0 mph 8.0 mph 97 % 0.00 in
04:40 32.0 °F 31.2 °F 29.64 in NW 3.0 mph 8.0 mph 97 % 0.00 in
04:45 32.0 °F 31.2 °F 29.64 in NW 3.0 mph 8.0 mph 97 % 0.00 in
04:49 31.6 °F 31.0 °F 29.64 in NW 3.0 mph 5.0 mph 98 % 0.00 in
04:50 31.7 °F 31.0 °F 29.65 in NW 2.0 mph 10.0 mph 97 % 0.00 in
04:55 31.7 °F 31.0 °F 29.65 in NW 2.0 mph 10.0 mph 97 % 0.00 in
05:00 31.7 °F 31.0 °F 29.65 in NW 2.0 mph 10.0 mph 97 % 0.00 in
05:04 31.3 °F 31.0 °F 29.65 in Calm   8.0 mph 98 % 0.00 in
05:05 31.5 °F 30.7 °F 29.65 in NW 3.0 mph 9.0 mph 97 % 0.00 in
05:10 31.5 °F 30.7 °F 29.65 in NW 3.0 mph 9.0 mph 97 % 0.00 in
05:15 31.5 °F 30.7 °F 29.65 in NW 3.0 mph 9.0 mph 97 % 0.00 in
05:19 31.3 °F 31.0 °F 29.65 in Calm   5.0 mph 98 % 0.00 in
05:20 31.3 °F 30.5 °F 29.65 in NW 2.0 mph 8.0 mph 97 % 0.00 in
05:25 31.3 °F 30.5 °F 29.65 in NW 2.0 mph 8.0 mph 97 % 0.00 in
05:30 31.3 °F 30.5 °F 29.65 in NW 2.0 mph 8.0 mph 97 % 0.00 in
05:34 31.3 °F 31.0 °F 29.65 in WNW 2.0 mph 5.0 mph 98 % 0.00 in
05:35 31.3 °F 30.5 °F 29.66 in NW 2.0 mph 8.0 mph 97 % 0.00 in
05:40 31.3 °F 30.5 °F 29.66 in NW 2.0 mph 8.0 mph 97 % 0.00 in
05:45 31.3 °F 30.5 °F 29.66 in NW 2.0 mph 8.0 mph 97 % 0.00 in
05:49 31.4 °F 31.0 °F 29.66 in NW 1.0 mph 8.0 mph 98 % 0.00 in
05:50 31.3 °F 30.5 °F 29.67 in WNW 2.0 mph 8.0 mph 97 % 0.00 in
05:55 31.3 °F 30.5 °F 29.67 in WNW 2.0 mph 8.0 mph 97 % 0.00 in
06:00 31.3 °F 30.5 °F 29.67 in WNW 2.0 mph 8.0 mph 97 % 0.00 in
06:04 31.4 °F 31.0 °F 29.66 in Calm   6.0 mph 98 % 0.00 in
06:05 31.4 °F 30.6 °F 29.67 in NW 2.0 mph 7.0 mph 97 % 0.00 in
06:10 31.4 °F 30.6 °F 29.67 in NW 2.0 mph 7.0 mph 97 % 0.00 in
06:15 31.4 °F 30.6 °F 29.67 in NW 2.0 mph 7.0 mph 97 % 0.00 in
06:19 31.5 °F 31.0 °F 29.66 in NW 3.0 mph 3.0 mph 98 % 0.00 in
06:20 31.5 °F 30.7 °F 29.67 in NW 1.0 mph 3.0 mph 97 % 0.00 in
06:25 31.5 °F 30.7 °F 29.67 in NW 1.0 mph 3.0 mph 97 % 0.00 in
06:30 31.5 °F 30.7 °F 29.67 in NW 1.0 mph 3.0 mph 97 % 0.00 in
06:34 31.6 °F 31.0 °F 29.67 in Calm   3.0 mph 98 % 0.00 in
06:35 31.5 °F 30.7 °F 29.67 in NW 1.0 mph 4.0 mph 97 % 0.00 in
06:40 31.5 °F 30.7 °F 29.67 in NW 1.0 mph 4.0 mph 97 % 0.00 in
06:45 31.5 °F 30.7 °F 29.67 in NW 1.0 mph 4.0 mph 97 % 0.00 in
06:49 31.8 °F 31.0 °F 29.68 in Calm   4.0 mph 98 % 0.00 in
06:50 31.6 °F 30.9 °F 29.68 in Calm   4.0 mph 97 % 0.00 in
06:55 31.6 °F 30.9 °F 29.68 in Calm   4.0 mph 97 % 0.00 in
07:00 31.6 °F 30.9 °F 29.68 in Calm   4.0 mph 97 % 0.00 in
07:04 31.9 °F 31.0 °F 29.68 in WNW 2.0 mph 2.0 mph 98 % 0.00 in
07:05 31.8 °F 31.0 °F 29.68 in Calm   3.0 mph 97 % 0.00 in
07:10 31.8 °F 31.0 °F 29.68 in Calm   3.0 mph 97 % 0.00 in
07:19 32.1 °F 32.0 °F 29.69 in WNW 1.0 mph 3.0 mph 98 % 0.00 in
07:20 32.0 °F 31.2 °F 29.69 in WNW 1.0 mph 3.0 mph 97 % 0.00 in
07:25 32.0 °F 31.2 °F 29.69 in WNW 1.0 mph 3.0 mph 97 % 0.00 in
07:30 32.0 °F 31.2 °F 29.69 in WNW 1.0 mph 3.0 mph 97 % 0.00 in
07:34 32.1 °F 32.0 °F 29.68 in WNW 2.0 mph 4.0 mph 98 % 0.00 in
07:35 32.1 °F 31.4 °F 29.69 in WNW 1.0 mph 3.0 mph 97 % 0.00 in
07:40 32.1 °F 31.4 °F 29.69 in WNW 1.0 mph 3.0 mph 97 % 0.00 in
07:45 32.1 °F 31.4 °F 29.69 in WNW 1.0 mph 3.0 mph 97 % 0.00 in
07:49 32.2 °F 32.0 °F 29.69 in Calm   5.0 mph 98 % 0.00 in
07:50 32.2 °F 31.4 °F 29.69 in WNW 1.0 mph 4.0 mph 97 % 0.00 in
07:55 32.2 °F 31.4 °F 29.69 in WNW 1.0 mph 4.0 mph 97 % 0.00 in
08:00 32.2 °F 31.4 °F 29.69 in WNW 1.0 mph 4.0 mph 97 % 0.00 in
08:04 32.3 °F 32.0 °F 29.70 in Calm   3.0 mph 98 % 0.00 in
08:05 32.2 °F 31.4 °F 29.70 in WNW 1.0 mph 5.0 mph 97 % 0.00 in
08:10 32.2 °F 31.4 °F 29.70 in WNW 1.0 mph 5.0 mph 97 % 0.00 in
08:15 32.2 °F 31.4 °F 29.70 in WNW 1.0 mph 5.0 mph 97 % 0.00 in
08:19 32.4 °F 32.0 °F 29.70 in WNW 1.0 mph 3.0 mph 98 % 0.00 in
08:20 32.3 °F 31.5 °F 29.71 in Calm   2.0 mph 97 % 0.00 in
08:25 32.3 °F 31.5 °F 29.71 in Calm   2.0 mph 97 % 0.00 in
08:30 32.3 °F 31.5 °F 29.71 in Calm   2.0 mph 97 % 0.00 in
08:34 32.6 °F 32.0 °F 29.71 in Calm   3.0 mph 98 % 0.00 in
08:35 32.5 °F 31.8 °F 29.72 in WNW 1.0 mph 5.0 mph 97 % 0.00 in
08:40 32.5 °F 31.8 °F 29.72 in WNW 1.0 mph 5.0 mph 97 % 0.00 in
08:45 32.5 °F 31.8 °F 29.72 in WNW 1.0 mph 5.0 mph 97 % 0.00 in
08:49 32.8 °F 32.0 °F 29.72 in WNW 1.0 mph 3.0 mph 98 % 0.00 in
08:50 32.7 °F 32.0 °F 29.72 in Calm   3.0 mph 97 % 0.00 in
08:55 32.7 °F 32.0 °F 29.72 in Calm   3.0 mph 97 % 0.00 in
09:00 32.7 °F 32.0 °F 29.72 in Calm   3.0 mph 97 % 0.00 in
09:04 33.1 °F 33.0 °F 29.72 in Calm   5.0 mph 98 % 0.00 in
09:05 32.9 °F 32.1 °F 29.73 in WNW 1.0 mph 4.0 mph 97 % 0.00 in
09:10 32.9 °F 32.1 °F 29.73 in WNW 1.0 mph 4.0 mph 97 % 0.00 in
09:15 32.9 °F 32.1 °F 29.73 in WNW 1.0 mph 4.0 mph 97 % 0.00 in
09:19 33.2 °F 33.0 °F 29.72 in NW 3.0 mph 8.0 mph 98 % 0.00 in
09:20 33.1 °F 32.3 °F 29.73 in WNW 2.0 mph 8.0 mph 97 % 0.00 in
09:25 33.1 °F 32.3 °F 29.73 in WNW 2.0 mph 8.0 mph 97 % 0.00 in
09:30 33.1 °F 32.3 °F 29.73 in WNW 2.0 mph 8.0 mph 97 % 0.00 in
09:34 33.3 °F 33.0 °F 29.74 in WNW 2.0 mph 4.0 mph 98 % 0.00 in
09:35 33.2 °F 32.5 °F 29.74 in WNW 2.0 mph 8.0 mph 97 % 0.00 in
09:40 33.2 °F 32.5 °F 29.74 in WNW 2.0 mph 8.0 mph 97 % 0.00 in
09:49 33.5 °F 33.0 °F 29.74 in NW 1.0 mph 8.0 mph 98 % 0.00 in
09:50 33.4 °F 32.7 °F 29.74 in WNW 2.0 mph 6.0 mph 97 % 0.00 in
09:55 33.4 °F 32.7 °F 29.74 in WNW 2.0 mph 6.0 mph 97 % 0.00 in
10:00 33.4 °F 32.7 °F 29.74 in WNW 2.0 mph 6.0 mph 97 % 0.00 in
10:04 33.7 °F 33.0 °F 29.74 in NW 2.0 mph 8.0 mph 98 % 0.00 in
10:05 33.6 °F 32.8 °F 29.75 in NW 3.0 mph 8.0 mph 97 % 0.00 in
10:10 33.6 °F 32.8 °F 29.75 in NW 3.0 mph 8.0 mph 97 % 0.00 in
10:15 33.6 °F 32.8 °F 29.75 in NW 3.0 mph 8.0 mph 97 % 0.00 in
10:20 33.9 °F 33.0 °F 29.75 in NW 1.0 mph 6.0 mph 98 % 0.00 in
10:25 33.8 °F 33.0 °F 29.75 in NW 1.0 mph 7.0 mph 97 % 0.00 in
10:30 33.8 °F 33.0 °F 29.75 in NW 1.0 mph 7.0 mph 97 % 0.00 in
10:34 34.1 °F 34.0 °F 29.75 in NW 2.0 mph 5.0 mph 98 % 0.00 in
10:35 34.0 °F 33.2 °F 29.76 in WNW 1.0 mph 5.0 mph 97 % 0.00 in
10:40 33.8 °F 33.3 °F 29.75 in NW 10.0 mph 10.0 mph 98 % 0.00 in
10:45 34.2 °F 33.7 °F 29.75 in NW 4.6 mph 4.6 mph 98 % 0.00 in
10:50 34.3 °F 33.8 °F 29.75 in NW 4.6 mph 4.6 mph 98 % 0.00 in
10:55 34.4 °F 33.9 °F 29.75 in NW 3.0 mph 3.0 mph 98 % 0.00 in
11:00 34.5 °F 34.0 °F 29.75 in NW 3.5 mph 3.5 mph 98 % 0.00 in
11:05 34.5 °F 33.8 °F 29.76 in NW 2.0 mph 3.0 mph 97 % 0.00 in
11:10 34.6 °F 33.8 °F 29.75 in NW 3.0 mph 5.0 mph 97 % 0.00 in
11:15 34.6 °F 33.8 °F 29.75 in NW 3.0 mph 5.0 mph 97 % 0.00 in
11:19 34.7 °F 34.0 °F 29.75 in NW 3.0 mph 8.0 mph 98 % 0.00 in
11:20 34.6 °F 33.8 °F 29.75 in NW 3.0 mph 5.0 mph 97 % 0.00 in
11:25 34.6 °F 33.8 °F 29.76 in NW 3.0 mph 9.0 mph 97 % 0.00 in
11:30 34.6 °F 33.8 °F 29.76 in NW 3.0 mph 9.0 mph 97 % 0.00 in
11:34 34.9 °F 34.0 °F 29.75 in NW 3.0 mph 8.0 mph 98 % 0.00 in
11:35 34.6 °F 33.8 °F 29.76 in NW 3.0 mph 9.0 mph 97 % 0.00 in
11:40 34.8 °F 34.0 °F 29.76 in NW 2.0 mph 8.0 mph 97 % 0.00 in
11:45 34.8 °F 34.0 °F 29.76 in NW 2.0 mph 8.0 mph 97 % 0.00 in
11:49 35.0 °F 35.0 °F 29.75 in NW 4.0 mph 10.0 mph 98 % 0.00 in
11:50 34.8 °F 34.0 °F 29.76 in NW 2.0 mph 8.0 mph 97 % 0.00 in
11:55 34.9 °F 34.1 °F 29.76 in NW 2.0 mph 8.0 mph 97 % 0.00 in
12:00 34.9 °F 34.1 °F 29.76 in NW 2.0 mph 8.0 mph 97 % 0.00 in
12:04 35.2 °F 35.0 °F 29.74 in NW 3.0 mph 8.0 mph 98 % 0.00 in
12:05 34.9 °F 34.1 °F 29.76 in NW 2.0 mph 8.0 mph 97 % 0.00 in
12:10 35.1 °F 34.3 °F 29.75 in NW 2.0 mph 10.0 mph 97 % 0.00 in
12:15 35.1 °F 34.3 °F 29.75 in NW 2.0 mph 10.0 mph 97 % 0.00 in
12:19 35.4 °F 35.0 °F 29.74 in NW 4.0 mph 11.0 mph 98 % 0.00 in
12:20 35.1 °F 34.3 °F 29.75 in NW 2.0 mph 10.0 mph 97 % 0.00 in
12:25 35.2 °F 34.4 °F 29.75 in NW 3.0 mph 8.0 mph 97 % 0.00 in
12:30 35.2 °F 34.4 °F 29.75 in NW 3.0 mph 8.0 mph 97 % 0.00 in
12:34 35.6 °F 35.0 °F 29.75 in WNW 3.0 mph 9.0 mph 98 % 0.00 in
12:35 35.2 °F 34.4 °F 29.75 in NW 3.0 mph 8.0 mph 97 % 0.00 in
12:40 35.4 °F 34.6 °F 29.75 in NW 4.0 mph 11.0 mph 97 % 0.00 in
12:45 35.4 °F 34.6 °F 29.75 in NW 4.0 mph 11.0 mph 97 % 0.00 in
12:49 35.9 °F 35.0 °F 29.74 in North 4.0 mph 8.0 mph 98 % 0.00 in
12:50 35.4 °F 34.6 °F 29.75 in NW 4.0 mph 11.0 mph 97 % 0.00 in
12:55 35.7 °F 34.9 °F 29.75 in NW 3.0 mph 8.0 mph 97 % 0.00 in
13:00 35.7 °F 34.9 °F 29.75 in NW 3.0 mph 8.0 mph 97 % 0.00 in
13:04 36.2 °F 36.0 °F 29.75 in NNW 3.0 mph 8.0 mph 98 % 0.00 in
13:05 35.7 °F 34.9 °F 29.75 in NW 3.0 mph 8.0 mph 97 % 0.00 in
13:10 36.0 °F 35.2 °F 29.75 in NW 3.0 mph 8.0 mph 97 % 0.00 in
13:15 36.0 °F 35.2 °F 29.75 in NW 3.0 mph 8.0 mph 97 % 0.00 in
13:19 36.4 °F 36.0 °F 29.75 in NW 3.0 mph 8.0 mph 98 % 0.00 in
13:20 36.0 °F 35.2 °F 29.75 in NW 3.0 mph 8.0 mph 97 % 0.00 in
13:25 36.2 °F 35.2 °F 29.75 in NW 3.0 mph 8.0 mph 96 % 0.00 in
13:30 36.2 °F 35.2 °F 29.75 in NW 3.0 mph 8.0 mph 96 % 0.00 in
13:34 36.6 °F 36.0 °F 29.75 in WNW 2.0 mph 6.0 mph 97 % 0.00 in
13:40 36.4 °F 35.6 °F 29.75 in WNW 2.0 mph 7.0 mph 97 % 0.00 in
13:45 36.4 °F 35.6 °F 29.75 in WNW 2.0 mph 7.0 mph 97 % 0.00 in
13:49 36.6 °F 36.0 °F 29.75 in NW 3.0 mph 5.0 mph 97 % 0.00 in
13:50 36.4 °F 35.6 °F 29.75 in WNW 2.0 mph 7.0 mph 97 % 0.00 in
13:55 36.6 °F 35.6 °F 29.75 in WNW 2.0 mph 5.0 mph 96 % 0.00 in
14:04 36.5 °F 36.0 °F 29.75 in North 6.0 mph 6.0 mph 97 % 0.00 in
14:05 36.6 °F 35.6 °F 29.75 in WNW 2.0 mph 5.0 mph 96 % 0.00 in
14:10 36.6 °F 35.6 °F 29.76 in NW 3.0 mph 8.0 mph 96 % 0.00 in
14:15 36.6 °F 35.6 °F 29.76 in NW 3.0 mph 8.0 mph 96 % 0.00 in
14:20 36.6 °F 36.0 °F 29.76 in NW 5.0 mph 6.0 mph 97 % 0.00 in
14:25 36.5 °F 35.5 °F 29.76 in NW 2.0 mph 7.0 mph 96 % 0.00 in
14:30 36.5 °F 35.5 °F 29.76 in NW 2.0 mph 7.0 mph 96 % 0.00 in
14:35 36.7 °F 36.0 °F 29.75 in Calm   6.0 mph 97 % 0.00 in
14:40 36.6 °F 35.6 °F 29.76 in NW 3.0 mph 8.0 mph 96 % 0.00 in
14:45 36.6 °F 35.6 °F 29.76 in NW 3.0 mph 8.0 mph 96 % 0.00 in
14:50 36.6 °F 36.0 °F 29.76 in WNW 5.0 mph 9.0 mph 97 % 0.00 in
14:55 36.7 °F 35.7 °F 29.76 in NW 3.0 mph 9.0 mph 96 % 0.00 in
15:00 36.7 °F 35.7 °F 29.76 in NW 3.0 mph 9.0 mph 96 % 0.00 in
15:05 36.5 °F 36.0 °F 29.76 in NW 4.0 mph 6.0 mph 97 % 0.00 in
15:15 36.6 °F 35.6 °F 29.77 in NW 3.0 mph 9.0 mph 96 % 0.00 in
15:20 36.5 °F 36.0 °F 29.76 in NW 3.0 mph 11.0 mph 97 % 0.00 in
15:25 36.5 °F 35.5 °F 29.77 in NW 3.0 mph 8.0 mph 96 % 0.00 in
15:30 36.5 °F 35.5 °F 29.77 in NW 3.0 mph 8.0 mph 96 % 0.00 in
15:35 36.6 °F 36.0 °F 29.77 in NW 4.0 mph 10.0 mph 97 % 0.00 in
15:40 36.5 °F 35.5 °F 29.77 in NW 3.0 mph 11.0 mph 96 % 0.00 in
15:45 36.5 °F 35.5 °F 29.77 in NW 3.0 mph 11.0 mph 96 % 0.00 in
15:50 36.7 °F 36.0 °F 29.77 in West 2.0 mph 8.0 mph 97 % 0.00 in
15:55 36.6 °F 35.6 °F 29.78 in NW 3.0 mph 10.0 mph 96 % 0.00 in
16:00 36.6 °F 35.6 °F 29.78 in NW 3.0 mph 10.0 mph 96 % 0.00 in
16:05 36.8 °F 36.0 °F 29.78 in NW 2.0 mph 9.0 mph 97 % 0.00 in
16:10 36.7 °F 35.7 °F 29.78 in NW 3.0 mph 8.0 mph 96 % 0.00 in
16:15 36.7 °F 35.7 °F 29.78 in NW 3.0 mph 8.0 mph 96 % 0.00 in
16:20 36.7 °F 35.7 °F 29.78 in NW 3.0 mph 8.0 mph 96 % 0.00 in
16:22 36.9 °F 36.0 °F 29.78 in NW 2.0 mph 9.0 mph 96 % 0.00 in
16:25 36.8 °F 35.5 °F 29.79 in NW 3.0 mph 9.0 mph 95 % 0.00 in
16:30 36.8 °F 35.5 °F 29.79 in NW 3.0 mph 9.0 mph 95 % 0.00 in
16:35 36.8 °F 35.5 °F 29.79 in NW 3.0 mph 9.0 mph 95 % 0.00 in
16:37 36.9 °F 36.0 °F 29.79 in NW 4.0 mph 9.0 mph 96 % 0.00 in
16:40 36.9 °F 35.9 °F 29.79 in NW 2.0 mph 8.0 mph 96 % 0.00 in
16:45 36.9 °F 35.9 °F 29.79 in NW 2.0 mph 8.0 mph 96 % 0.00 in
16:50 36.9 °F 35.9 °F 29.79 in NW 2.0 mph 8.0 mph 96 % 0.00 in
16:52 37.0 °F 36.0 °F 29.79 in NW 3.0 mph 5.0 mph 96 % 0.00 in
16:55 37.0 °F 35.7 °F 29.80 in NW 3.0 mph 9.0 mph 95 % 0.00 in
17:05 37.0 °F 35.7 °F 29.80 in NW 3.0 mph 9.0 mph 95 % 0.00 in
17:07 37.0 °F 36.0 °F 29.79 in NW 6.0 mph 7.0 mph 96 % 0.00 in
17:15 37.0 °F 35.7 °F 29.80 in WNW 3.0 mph 9.0 mph 95 % 0.00 in
17:20 37.0 °F 35.7 °F 29.80 in WNW 3.0 mph 9.0 mph 95 % 0.00 in
17:22 37.0 °F 36.0 °F 29.80 in NNW 2.0 mph 6.0 mph 96 % 0.00 in
17:25 37.0 °F 35.7 °F 29.80 in NW 3.0 mph 10.0 mph 95 % 0.00 in
17:30 37.0 °F 35.7 °F 29.80 in NW 3.0 mph 10.0 mph 95 % 0.00 in
17:35 37.0 °F 35.7 °F 29.80 in NW 3.0 mph 10.0 mph 95 % 0.00 in
17:38 37.0 °F 36.0 °F 29.80 in NW 4.0 mph 6.0 mph 96 % 0.00 in
17:40 37.0 °F 35.7 °F 29.80 in NW 3.0 mph 12.0 mph 95 % 0.00 in
17:45 37.0 °F 35.7 °F 29.80 in NW 3.0 mph 12.0 mph 95 % 0.00 in
17:50 37.0 °F 35.7 °F 29.80 in NW 3.0 mph 12.0 mph 95 % 0.00 in
17:52 37.1 °F 36.0 °F 29.81 in NW 4.0 mph 10.0 mph 96 % 0.00 in
17:55 37.0 °F 35.7 °F 29.81 in NW 3.0 mph 10.0 mph 95 % 0.00 in
18:00 37.0 °F 35.7 °F 29.81 in NW 3.0 mph 10.0 mph 95 % 0.00 in
18:05 37.0 °F 35.7 °F 29.81 in NW 3.0 mph 10.0 mph 95 % 0.00 in
18:07 37.1 °F 36.0 °F 29.82 in WNW 3.0 mph 8.0 mph 96 % 0.00 in
18:10 37.1 °F 35.8 °F 29.82 in NW 4.0 mph 10.0 mph 95 % 0.00 in
18:15 37.1 °F 35.8 °F 29.82 in NW 4.0 mph 10.0 mph 95 % 0.00 in
18:20 37.1 °F 35.8 °F 29.82 in NW 4.0 mph 10.0 mph 95 % 0.00 in
18:22 37.1 °F 36.0 °F 29.82 in NW 2.0 mph 8.0 mph 96 % 0.00 in
18:25 37.1 °F 35.8 °F 29.83 in NW 3.0 mph 9.0 mph 95 % 0.00 in
18:30 37.1 °F 35.8 °F 29.83 in NW 3.0 mph 9.0 mph 95 % 0.00 in
18:35 37.1 °F 35.8 °F 29.83 in NW 3.0 mph 9.0 mph 95 % 0.00 in
18:37 37.0 °F 36.0 °F 29.82 in WNW 2.0 mph 8.0 mph 96 % 0.00 in
18:45 37.1 °F 35.8 °F 29.83 in NW 3.0 mph 8.0 mph 95 % 0.00 in
18:50 37.1 °F 35.8 °F 29.83 in NW 3.0 mph 8.0 mph 95 % 0.00 in
18:52 37.0 °F 36.0 °F 29.82 in NW 1.0 mph 10.0 mph 96 % 0.00 in
18:55 37.0 °F 35.7 °F 29.83 in NW 3.0 mph 8.0 mph 95 % 0.00 in
19:00 37.0 °F 35.7 °F 29.83 in NW 3.0 mph 8.0 mph 95 % 0.00 in
19:05 37.0 °F 35.7 °F 29.83 in NW 3.0 mph 8.0 mph 95 % 0.00 in
19:07 37.0 °F 36.0 °F 29.82 in North 4.0 mph 9.0 mph 96 % 0.00 in
19:10 37.0 °F 35.7 °F 29.83 in NW 3.0 mph 10.0 mph 95 % 0.00 in
19:15 37.0 °F 35.7 °F 29.83 in NW 3.0 mph 10.0 mph 95 % 0.00 in
19:20 37.0 °F 35.7 °F 29.83 in NW 3.0 mph 10.0 mph 95 % 0.00 in
19:22 37.0 °F 36.0 °F 29.83 in NW 2.0 mph 6.0 mph 96 % 0.00 in
19:25 37.0 °F 35.7 °F 29.83 in NW 2.0 mph 9.0 mph 95 % 0.00 in
19:30 37.0 °F 35.7 °F 29.83 in NW 2.0 mph 9.0 mph 95 % 0.00 in
19:35 37.0 °F 35.7 °F 29.83 in NW 2.0 mph 9.0 mph 95 % 0.00 in
19:37 37.0 °F 36.0 °F 29.83 in West 1.0 mph 6.0 mph 96 % 0.00 in
19:40 37.0 °F 35.7 °F 29.83 in NW 2.0 mph 8.0 mph 95 % 0.00 in
19:45 37.0 °F 35.7 °F 29.83 in NW 2.0 mph 8.0 mph 95 % 0.00 in
19:50 37.0 °F 35.7 °F 29.83 in NW 2.0 mph 8.0 mph 95 % 0.00 in
19:52 37.0 °F 36.0 °F 29.84 in NW 3.0 mph 9.0 mph 96 % 0.00 in
19:55 37.0 °F 35.7 °F 29.84 in NW 2.0 mph 6.0 mph 95 % 0.00 in
20:00 37.0 °F 35.7 °F 29.84 in NW 2.0 mph 6.0 mph 95 % 0.00 in
20:05 37.0 °F 35.7 °F 29.84 in NW 2.0 mph 6.0 mph 95 % 0.00 in
20:07 37.0 °F 36.0 °F 29.84 in NW 3.0 mph 6.0 mph 97 % 0.00 in
20:10 37.0 °F 35.7 °F 29.85 in NW 2.0 mph 9.0 mph 95 % 0.00 in
20:15 37.0 °F 35.7 °F 29.85 in NW 2.0 mph 9.0 mph 95 % 0.00 in
20:20 37.0 °F 35.7 °F 29.85 in NW 2.0 mph 9.0 mph 95 % 0.00 in
20:22 37.0 °F 36.0 °F 29.84 in NNW 2.0 mph 5.0 mph 97 % 0.00 in
20:25 37.0 °F 36.0 °F 29.85 in NW 3.0 mph 7.0 mph 96 % 0.00 in
20:30 37.0 °F 36.0 °F 29.85 in NW 3.0 mph 7.0 mph 96 % 0.00 in
20:35 37.0 °F 36.0 °F 29.85 in NW 3.0 mph 7.0 mph 96 % 0.00 in
20:37 37.0 °F 36.0 °F 29.84 in NW 2.0 mph 6.0 mph 97 % 0.00 in
20:40 37.0 °F 36.0 °F 29.85 in NW 2.0 mph 6.0 mph 96 % 0.00 in
20:45 37.0 °F 36.0 °F 29.85 in NW 2.0 mph 6.0 mph 96 % 0.00 in
20:50 37.0 °F 36.0 °F 29.85 in NW 2.0 mph 6.0 mph 96 % 0.00 in
20:52 37.0 °F 36.0 °F 29.85 in WNW 3.0 mph 9.0 mph 97 % 0.00 in
20:55 37.0 °F 36.0 °F 29.85 in NW 3.0 mph 7.0 mph 96 % 0.00 in
21:00 37.0 °F 36.0 °F 29.85 in NW 3.0 mph 7.0 mph 96 % 0.00 in
21:05 37.0 °F 36.0 °F 29.85 in NW 3.0 mph 7.0 mph 96 % 0.00 in
21:07 36.9 °F 36.0 °F 29.85 in NW 3.0 mph 8.0 mph 97 % 0.00 in
21:10 37.0 °F 36.0 °F 29.85 in WNW 3.0 mph 9.0 mph 96 % 0.00 in
21:15 37.0 °F 36.0 °F 29.85 in WNW 3.0 mph 9.0 mph 96 % 0.00 in
21:20 37.0 °F 36.0 °F 29.85 in WNW 3.0 mph 9.0 mph 96 % 0.00 in
21:22 36.8 °F 36.0 °F 29.85 in NW 7.0 mph 8.0 mph 97 % 0.00 in
21:25 36.9 °F 35.9 °F 29.86 in NW 3.0 mph 8.0 mph 96 % 0.00 in
21:30 36.9 °F 35.9 °F 29.86 in NW 3.0 mph 8.0 mph 96 % 0.00 in
21:37 36.7 °F 36.0 °F 29.85 in NW 5.0 mph 9.0 mph 97 % 0.00 in
21:40 36.8 °F 35.8 °F 29.86 in NW 4.0 mph 10.0 mph 96 % 0.00 in
21:45 36.8 °F 35.8 °F 29.86 in NW 4.0 mph 10.0 mph 96 % 0.00 in
21:50 36.8 °F 35.8 °F 29.86 in NW 4.0 mph 10.0 mph 96 % 0.00 in
21:53 36.5 °F 36.0 °F 29.85 in WNW 3.0 mph 9.0 mph 97 % 0.00 in
21:55 36.7 °F 35.7 °F 29.85 in NW 4.0 mph 12.0 mph 96 % 0.00 in
22:00 36.7 °F 35.7 °F 29.85 in NW 4.0 mph 12.0 mph 96 % 0.00 in
22:05 36.7 °F 35.7 °F 29.85 in NW 4.0 mph 12.0 mph 96 % 0.00 in
22:08 36.2 °F 36.0 °F 29.85 in NNW 5.0 mph 12.0 mph 97 % 0.00 in
22:10 36.5 °F 35.5 °F 29.85 in NW 4.0 mph 9.0 mph 96 % 0.00 in
22:15 36.5 °F 35.5 °F 29.85 in NW 4.0 mph 9.0 mph 96 % 0.00 in
22:20 36.5 °F 35.5 °F 29.85 in NW 4.0 mph 9.0 mph 96 % 0.00 in
22:23 36.0 °F 35.0 °F 29.86 in WNW 1.0 mph 8.0 mph 97 % 0.00 in
22:25 36.2 °F 35.2 °F 29.86 in NW 4.0 mph 15.0 mph 96 % 0.00 in
22:38 35.7 °F 35.0 °F 29.86 in NNW 4.0 mph 9.0 mph 97 % 0.00 in
22:40 36.0 °F 35.0 °F 29.87 in NW 3.0 mph 9.0 mph 96 % 0.00 in
22:45 36.0 °F 35.0 °F 29.87 in NW 3.0 mph 9.0 mph 96 % 0.00 in
22:50 36.0 °F 35.0 °F 29.87 in NW 3.0 mph 9.0 mph 96 % 0.00 in
22:53 35.4 °F 35.0 °F 29.87 in NW 2.0 mph 7.0 mph 97 % 0.00 in
22:55 35.7 °F 34.7 °F 29.87 in NW 3.0 mph 9.0 mph 96 % 0.00 in
23:00 35.7 °F 34.7 °F 29.87 in NW 3.0 mph 9.0 mph 96 % 0.00 in
23:05 35.7 °F 34.7 °F 29.87 in NW 3.0 mph 9.0 mph 96 % 0.00 in
23:08 35.1 °F 34.0 °F 29.88 in NW 1.0 mph 9.0 mph 97 % 0.00 in
23:10 35.4 °F 34.4 °F 29.88 in NW 2.0 mph 8.0 mph 96 % 0.00 in
23:15 35.4 °F 34.4 °F 29.88 in NW 2.0 mph 8.0 mph 96 % 0.00 in
23:20 35.4 °F 34.4 °F 29.88 in NW 2.0 mph 8.0 mph 96 % 0.00 in
23:23 34.7 °F 34.0 °F 29.89 in NNW 6.0 mph 8.0 mph 97 % 0.00 in
23:25 35.1 °F 34.1 °F 29.89 in WNW 2.0 mph 9.0 mph 96 % 0.00 in
23:30 35.1 °F 34.1 °F 29.89 in WNW 2.0 mph 9.0 mph 96 % 0.00 in
23:35 35.1 °F 34.1 °F 29.89 in WNW 2.0 mph 9.0 mph 96 % 0.00 in
23:38 34.3 °F 34.0 °F 29.89 in Calm   7.0 mph 97 % 0.00 in
23:40 34.7 °F 33.7 °F 29.90 in NW 3.0 mph 10.0 mph 96 % 0.00 in
23:45 34.7 °F 33.7 °F 29.90 in NW 3.0 mph 10.0 mph 96 % 0.00 in
23:50 34.7 °F 33.7 °F 29.90 in NW 3.0 mph 10.0 mph 96 % 0.00 in
23:53 34.2 °F 34.0 °F 29.89 in West 3.0 mph 5.0 mph 97 % 0.00 in
23:55 34.3 °F 33.3 °F 29.90 in WNW 2.0 mph 7.0 mph 96 % 0.00 in
Des Moines Weather and Climate
Compliments of Weather Underground - 4.5 mb

Script developed by  Jim McMurry - jmcmurry@mwt.net Adapted for the template by  Wim van der Kuil - Leuven-Template.eu

You find our weather info also at:

Weather Underground

Equipment we use:

Weather-station
Davis VP2 Plus

Weather-program
Davis Weatherlink.Com

Weather-server
iMac (Retina 4K, 21.5-inch, Late 2015)

Provider
Hostmonster.com

Davis VP2 Plus

Davis Weatherlink.Com

iMac (Retina 4K, 21.5-inch, Late 2015)

Hostmonster.com